Time;durP1;ratioP1;P1;durP2;ratioP2;P2;SDS_P1;SDS_P2;PMS_P1;PMS_P2;Temp;Humidity;BMP_temperature;BMP_pressure;BME280_temperature;BME280_humidity;BME280_pressure;Samples;Min_cycle;Max_cycle;Signal;HPM_P1;HPM_P2
2022/06/22 00:00:01;;;;;;;0.7;0.7;;;;;;;16.9;100.0;101100;;;;
2022/06/22 00:01:05;;;;;;;0.7;0.7;;;;;;;16.8;100.0;101100;;;;
2022/06/22 00:02:10;;;;;;;0.7;0.7;;;;;;;16.8;100.0;101100;;;;
2022/06/22 00:03:00;;;;;;;0.7;0.7;;;;;;;16.8;100.0;101100;;;;
2022/06/22 00:04:01;;;;;;;0.7;0.7;;;;;;;16.8;100.0;101100;;;;
2022/06/22 00:05:02;;;;;;;0.7;0.7;;;;;;;16.8;100.0;101110;;;;
2022/06/22 00:06:00;;;;;;;0.7;0.7;;;;;;;16.8;100.0;101110;;;;
2022/06/22 00:07:05;;;;;;;0.7;0.7;;;;;;;16.7;100.0;101110;;;;
2022/06/22 00:08:02;;;;;;;0.7;0.7;;;;;;;16.7;100.0;101110;;;;
2022/06/22 00:09:00;;;;;;;0.7;0.7;;;;;;;16.7;100.0;101100;;;;
2022/06/22 00:10:07;;;;;;;0.7;0.7;;;;;;;16.7;100.0;101100;;;;
2022/06/22 00:11:10;;;;;;;0.7;0.7;;;;;;;16.7;100.0;101110;;;;
2022/06/22 00:12:00;;;;;;;0.7;0.7;;;;;;;16.7;100.0;101110;;;;
2022/06/22 00:13:01;;;;;;;0.7;0.7;;;;;;;16.6;100.0;101100;;;;
2022/06/22 00:14:02;;;;;;;0.7;0.7;;;;;;;16.6;100.0;101100;;;;
2022/06/22 00:15:01;;;;;;;0.7;0.7;;;;;;;16.6;100.0;101100;;;;
2022/06/22 00:16:02;;;;;;;0.7;0.7;;;;;;;16.6;100.0;101100;;;;
2022/06/22 00:17:00;;;;;;;0.7;0.7;;;;;;;16.5;100.0;101100;;;;
2022/06/22 00:18:01;;;;;;;0.7;0.7;;;;;;;16.5;100.0;101100;;;;
2022/06/22 00:19:09;;;;;;;0.5;0.5;;;;;;;16.5;100.0;101090;;;;
2022/06/22 00:20:04;;;;;;;0.5;0.5;;;;;;;16.5;100.0;101090;;;;
2022/06/22 00:21:02;;;;;;;0.5;0.5;;;;;;;16.5;100.0;101090;;;;
2022/06/22 00:22:00;;;;;;;0.5;0.5;;;;;;;16.5;100.0;101090;;;;
2022/06/22 00:23:10;;;;;;;0.5;0.5;;;;;;;16.4;100.0;101090;;;;
2022/06/22 00:24:02;;;;;;;0.5;0.5;;;;;;;16.4;100.0;101090;;;;
2022/06/22 00:25:09;;;;;;;0.5;0.5;;;;;;;16.4;100.0;101090;;;;
2022/06/22 00:26:07;;;;;;;0.5;0.5;;;;;;;16.4;100.0;101090;;;;
2022/06/22 00:27:07;;;;;;;0.5;0.5;;;;;;;16.4;100.0;101090;;;;
2022/06/22 00:28:10;;;;;;;0.5;0.5;;;;;;;16.4;100.0;101090;;;;
2022/06/22 00:29:10;;;;;;;0.5;0.5;;;;;;;16.3;100.0;101090;;;;
2022/06/22 00:30:10;;;;;;;0.5;0.5;;;;;;;16.3;100.0;101090;;;;
2022/06/22 00:31:10;;;;;;;0.5;0.5;;;;;;;16.2;100.0;101090;;;;
2022/06/22 00:32:02;;;;;;;0.5;0.5;;;;;;;16.2;100.0;101090;;;;
2022/06/22 00:33:00;;;;;;;0.5;0.5;;;;;;;16.3;100.0;101080;;;;
2022/06/22 00:34:05;;;;;;;0.5;0.5;;;;;;;16.3;100.0;101080;;;;
2022/06/22 00:35:10;;;;;;;0.5;0.5;;;;;;;16.3;100.0;101080;;;;
2022/06/22 00:36:01;;;;;;;0.5;0.5;;;;;;;16.3;100.0;101080;;;;
2022/06/22 00:37:02;;;;;;;0.5;0.5;;;;;;;16.3;100.0;101070;;;;
2022/06/22 00:38:00;;;;;;;0.5;0.5;;;;;;;16.3;100.0;101070;;;;
2022/06/22 00:39:10;;;;;;;0.4;0.4;;;;;;;16.1;100.0;101070;;;;
2022/06/22 00:40:01;;;;;;;0.4;0.4;;;;;;;16.1;100.0;101070;;;;
2022/06/22 00:41:02;;;;;;;0.4;0.4;;;;;;;16.2;100.0;101070;;;;
2022/06/22 00:42:01;;;;;;;0.4;0.4;;;;;;;16.2;100.0;101070;;;;
2022/06/22 00:43:00;;;;;;;0.4;0.4;;;;;;;16.2;100.0;101080;;;;
2022/06/22 00:44:05;;;;;;;0.4;0.4;;;;;;;16.2;100.0;101080;;;;
2022/06/22 00:45:05;;;;;;;0.4;0.4;;;;;;;16.2;100.0;101070;;;;
2022/06/22 00:46:01;;;;;;;0.4;0.4;;;;;;;16.2;100.0;101070;;;;
2022/06/22 00:47:02;;;;;;;0.4;0.4;;;;;;;16.2;100.0;101070;;;;
2022/06/22 00:48:04;;;;;;;0.4;0.4;;;;;;;16.2;100.0;101070;;;;
2022/06/22 00:49:06;;;;;;;0.4;0.4;;;;;;;16.2;100.0;101070;;;;
2022/06/22 00:50:05;;;;;;;0.4;0.4;;;;;;;16.2;100.0;101070;;;;
2022/06/22 00:51:02;;;;;;;0.4;0.4;;;;;;;16.1;100.0;101070;;;;
2022/06/22 00:52:02;;;;;;;0.4;0.4;;;;;;;16.1;100.0;101070;;;;
2022/06/22 00:53:00;;;;;;;0.4;0.4;;;;;;;16.2;100.0;101070;;;;
2022/06/22 00:54:02;;;;;;;0.4;0.4;;;;;;;16.2;100.0;101070;;;;
2022/06/22 00:55:00;;;;;;;0.4;0.4;;;;;;;16.1;100.0;101070;;;;
2022/06/22 00:56:01;;;;;;;0.4;0.4;;;;;;;16.1;100.0;101070;;;;
2022/06/22 00:57:05;;;;;;;0.4;0.4;;;;;;;16.1;100.0;101070;;;;
2022/06/22 00:58:04;;;;;;;0.4;0.4;;;;;;;16.1;100.0;101070;;;;
2022/06/22 00:59:05;;;;;;;0.3;0.3;;;;;;;16.0;100.0;101060;;;;
2022/06/22 01:00:03;;;;;;;0.3;0.3;;;;;;;16.0;100.0;101060;;;;
2022/06/22 01:01:10;;;;;;;0.3;0.3;;;;;;;16.0;100.0;101060;;;;
2022/06/22 01:02:10;;;;;;;0.3;0.3;;;;;;;16.0;100.0;101060;;;;
2022/06/22 01:03:05;;;;;;;0.3;0.3;;;;;;;15.9;100.0;101070;;;;
2022/06/22 01:04:07;;;;;;;0.3;0.3;;;;;;;15.9;100.0;101070;;;;
2022/06/22 01:05:01;;;;;;;0.3;0.3;;;;;;;15.9;100.0;101070;;;;
2022/06/22 01:06:02;;;;;;;0.3;0.3;;;;;;;15.9;100.0;101070;;;;
2022/06/22 01:07:04;;;;;;;0.3;0.3;;;;;;;16.0;100.0;101070;;;;
2022/06/22 01:08:10;;;;;;;0.3;0.3;;;;;;;16.0;100.0;101070;;;;
2022/06/22 01:09:00;;;;;;;0.3;0.3;;;;;;;16.0;100.0;101060;;;;
2022/06/22 01:10:04;;;;;;;0.3;0.3;;;;;;;16.0;100.0;101060;;;;
2022/06/22 01:11:04;;;;;;;0.3;0.3;;;;;;;15.9;100.0;101060;;;;
2022/06/22 01:13:03;;;;;;;0.3;0.3;;;;;;;15.9;100.0;101060;;;;
2022/06/22 01:14:06;;;;;;;0.3;0.3;;;;;;;15.9;100.0;101060;;;;
2022/06/22 01:15:11;;;;;;;0.3;0.3;;;;;;;15.8;100.0;101060;;;;
2022/06/22 01:16:03;;;;;;;0.3;0.3;;;;;;;15.8;100.0;101060;;;;
2022/06/22 01:17:01;;;;;;;0.3;0.3;;;;;;;15.7;100.0;101070;;;;
2022/06/22 01:18:10;;;;;;;0.3;0.3;;;;;;;15.7;100.0;101070;;;;
2022/06/22 01:19:10;;;;;;;0.4;0.4;;;;;;;15.8;100.0;101070;;;;
2022/06/22 01:20:06;;;;;;;0.4;0.4;;;;;;;15.8;100.0;101070;;;;
2022/06/22 01:21:03;;;;;;;0.4;0.4;;;;;;;15.8;100.0;101070;;;;
2022/06/22 01:22:10;;;;;;;0.4;0.4;;;;;;;15.8;100.0;101070;;;;
2022/06/22 01:23:10;;;;;;;0.4;0.4;;;;;;;15.8;100.0;101080;;;;
2022/06/22 01:24:01;;;;;;;0.4;0.4;;;;;;;15.8;100.0;101080;;;;
2022/06/22 01:25:10;;;;;;;0.4;0.4;;;;;;;15.7;100.0;101070;;;;
2022/06/22 01:26:10;;;;;;;0.4;0.4;;;;;;;15.7;100.0;101070;;;;
2022/06/22 01:27:10;;;;;;;0.4;0.4;;;;;;;15.8;100.0;101070;;;;
2022/06/22 01:28:00;;;;;;;0.4;0.4;;;;;;;15.8;100.0;101070;;;;
2022/06/22 01:29:01;;;;;;;0.4;0.4;;;;;;;15.7;100.0;101070;;;;
2022/06/22 01:30:02;;;;;;;0.4;0.4;;;;;;;15.7;100.0;101070;;;;
2022/06/22 01:31:10;;;;;;;0.4;0.4;;;;;;;15.8;100.0;101070;;;;
2022/06/22 01:32:02;;;;;;;0.4;0.4;;;;;;;15.8;100.0;101070;;;;
2022/06/22 01:33:05;;;;;;;0.4;0.4;;;;;;;15.8;100.0;101080;;;;
2022/06/22 01:34:01;;;;;;;0.4;0.4;;;;;;;15.8;100.0;101080;;;;
2022/06/22 01:35:02;;;;;;;0.4;0.4;;;;;;;15.8;100.0;101080;;;;
2022/06/22 01:36:02;;;;;;;0.4;0.4;;;;;;;15.8;100.0;101080;;;;
2022/06/22 01:37:01;;;;;;;0.4;0.4;;;;;;;15.7;100.0;101080;;;;
2022/06/22 01:38:10;;;;;;;0.4;0.4;;;;;;;15.7;100.0;101080;;;;
2022/06/22 01:39:01;;;;;;;0.4;0.4;;;;;;;15.8;100.0;101080;;;;
2022/06/22 01:40:10;;;;;;;0.4;0.4;;;;;;;15.8;100.0;101080;;;;
2022/06/22 01:41:10;;;;;;;0.4;0.4;;;;;;;15.8;100.0;101080;;;;
2022/06/22 01:42:04;;;;;;;0.4;0.4;;;;;;;15.8;100.0;101080;;;;
2022/06/22 01:43:05;;;;;;;0.4;0.4;;;;;;;15.8;100.0;101070;;;;
2022/06/22 01:44:10;;;;;;;0.4;0.4;;;;;;;15.8;100.0;101070;;;;
2022/06/22 01:45:03;;;;;;;0.4;0.4;;;;;;;15.8;100.0;101070;;;;
2022/06/22 01:46:04;;;;;;;0.4;0.4;;;;;;;15.8;100.0;101070;;;;
2022/06/22 01:47:10;;;;;;;0.4;0.4;;;;;;;15.8;100.0;101070;;;;
2022/06/22 01:48:03;;;;;;;0.4;0.4;;;;;;;15.8;100.0;101070;;;;
2022/06/22 01:49:03;;;;;;;0.4;0.4;;;;;;;15.7;100.0;101070;;;;
2022/06/22 01:50:10;;;;;;;0.4;0.4;;;;;;;15.7;100.0;101070;;;;
2022/06/22 01:51:05;;;;;;;0.4;0.4;;;;;;;15.7;100.0;101070;;;;
2022/06/22 01:52:06;;;;;;;0.4;0.4;;;;;;;15.7;100.0;101070;;;;
2022/06/22 01:53:01;;;;;;;0.4;0.4;;;;;;;15.7;100.0;101060;;;;
2022/06/22 01:54:04;;;;;;;0.4;0.4;;;;;;;15.7;100.0;101060;;;;
2022/06/22 01:55:01;;;;;;;0.4;0.4;;;;;;;15.6;100.0;101050;;;;
2022/06/22 01:56:00;;;;;;;0.4;0.4;;;;;;;15.6;100.0;101050;;;;
2022/06/22 01:57:06;;;;;;;0.4;0.4;;;;;;;15.5;100.0;101040;;;;
2022/06/22 01:58:06;;;;;;;0.4;0.4;;;;;;;15.5;100.0;101040;;;;
2022/06/22 01:59:10;;;;;;;0.5;0.5;;;;;;;15.6;100.0;101040;;;;
2022/06/22 02:00:05;;;;;;;0.5;0.5;;;;;;;15.6;100.0;101040;;;;
2022/06/22 02:01:09;;;;;;;0.5;0.5;;;;;;;15.5;100.0;101040;;;;
2022/06/22 02:02:04;;;;;;;0.5;0.5;;;;;;;15.5;100.0;101040;;;;
2022/06/22 02:03:04;;;;;;;0.5;0.5;;;;;;;15.6;100.0;101040;;;;
2022/06/22 02:04:07;;;;;;;0.5;0.5;;;;;;;15.6;100.0;101040;;;;
2022/06/22 02:05:10;;;;;;;0.5;0.5;;;;;;;15.5;100.0;101040;;;;
2022/06/22 02:06:00;;;;;;;0.5;0.5;;;;;;;15.5;100.0;101040;;;;
2022/06/22 02:08:10;;;;;;;0.5;0.5;;;;;;;15.4;100.0;101040;;;;
2022/06/22 02:09:04;;;;;;;0.5;0.5;;;;;;;15.4;100.0;101030;;;;
2022/06/22 02:10:01;;;;;;;0.5;0.5;;;;;;;15.4;100.0;101030;;;;
2022/06/22 02:11:05;;;;;;;0.5;0.5;;;;;;;15.4;100.0;101030;;;;
2022/06/22 02:13:07;;;;;;;0.5;0.5;;;;;;;15.3;100.0;101030;;;;
2022/06/22 02:14:08;;;;;;;0.5;0.5;;;;;;;15.3;100.0;101030;;;;
2022/06/22 02:15:03;;;;;;;0.5;0.5;;;;;;;15.3;100.0;101040;;;;
2022/06/22 02:16:00;;;;;;;0.5;0.5;;;;;;;15.3;100.0;101040;;;;
2022/06/22 02:17:02;;;;;;;0.5;0.5;;;;;;;15.3;100.0;101040;;;;
2022/06/22 02:18:01;;;;;;;0.5;0.5;;;;;;;15.3;100.0;101040;;;;
2022/06/22 02:19:00;;;;;;;0.8;0.8;;;;;;;15.3;100.0;101040;;;;
2022/06/22 02:20:10;;;;;;;0.8;0.8;;;;;;;15.3;100.0;101040;;;;
2022/06/22 02:21:08;;;;;;;0.8;0.8;;;;;;;15.2;100.0;101040;;;;
2022/06/22 02:22:01;;;;;;;0.8;0.8;;;;;;;15.2;100.0;101040;;;;
2022/06/22 02:23:03;;;;;;;0.8;0.8;;;;;;;15.3;100.0;101040;;;;
2022/06/22 02:24:10;;;;;;;0.8;0.8;;;;;;;15.3;100.0;101040;;;;
2022/06/22 02:25:00;;;;;;;0.8;0.8;;;;;;;15.2;100.0;101040;;;;
2022/06/22 02:26:00;;;;;;;0.8;0.8;;;;;;;15.2;100.0;101040;;;;
2022/06/22 02:27:10;;;;;;;0.8;0.8;;;;;;;15.2;100.0;101050;;;;
2022/06/22 02:28:00;;;;;;;0.8;0.8;;;;;;;15.2;100.0;101050;;;;
2022/06/22 02:29:00;;;;;;;0.8;0.8;;;;;;;15.3;100.0;101050;;;;
2022/06/22 02:30:00;;;;;;;0.8;0.8;;;;;;;15.3;100.0;101050;;;;
2022/06/22 02:31:01;;;;;;;0.8;0.8;;;;;;;15.2;100.0;101040;;;;
2022/06/22 02:32:02;;;;;;;0.8;0.8;;;;;;;15.2;100.0;101040;;;;
2022/06/22 02:33:00;;;;;;;0.8;0.8;;;;;;;15.1;100.0;101040;;;;
2022/06/22 02:34:01;;;;;;;0.8;0.8;;;;;;;15.1;100.0;101040;;;;
2022/06/22 02:35:00;;;;;;;0.8;0.8;;;;;;;15.1;100.0;101030;;;;
2022/06/22 02:36:00;;;;;;;0.8;0.8;;;;;;;15.1;100.0;101030;;;;
2022/06/22 02:37:02;;;;;;;0.8;0.8;;;;;;;15.0;100.0;101030;;;;
2022/06/22 02:38:02;;;;;;;0.8;0.8;;;;;;;15.0;100.0;101030;;;;
2022/06/22 02:39:02;;;;;;;0.6;0.6;;;;;;;15.1;100.0;101020;;;;
2022/06/22 02:40:03;;;;;;;0.6;0.6;;;;;;;15.1;100.0;101020;;;;
2022/06/22 02:45:00;;;;;;;0.6;0.6;;;;;;;15.0;100.0;101000;;;;
2022/06/22 02:46:00;;;;;;;0.6;0.6;;;;;;;15.0;100.0;101000;;;;
2022/06/22 02:47:10;;;;;;;0.6;0.6;;;;;;;15.0;100.0;100990;;;;
2022/06/22 02:48:10;;;;;;;0.6;0.6;;;;;;;15.0;100.0;100990;;;;
2022/06/22 02:49:02;;;;;;;0.6;0.6;;;;;;;15.0;100.0;100990;;;;
2022/06/22 02:50:00;;;;;;;0.6;0.6;;;;;;;15.0;100.0;100990;;;;
2022/06/22 02:51:07;;;;;;;0.6;0.6;;;;;;;15.0;100.0;100990;;;;
2022/06/22 02:52:02;;;;;;;0.6;0.6;;;;;;;15.0;100.0;100990;;;;
2022/06/22 02:53:01;;;;;;;0.6;0.6;;;;;;;15.1;100.0;100990;;;;
2022/06/22 02:54:03;;;;;;;0.6;0.6;;;;;;;15.1;100.0;100990;;;;
2022/06/22 02:55:01;;;;;;;0.6;0.6;;;;;;;15.0;100.0;101000;;;;
2022/06/22 02:56:01;;;;;;;0.6;0.6;;;;;;;15.0;100.0;101000;;;;
2022/06/22 02:57:05;;;;;;;0.6;0.6;;;;;;;15.0;100.0;101000;;;;
2022/06/22 02:58:02;;;;;;;0.6;0.6;;;;;;;15.0;100.0;101000;;;;
2022/06/22 02:59:00;;;;;;;0.6;0.6;;;;;;;15.1;100.0;101010;;;;
2022/06/22 03:00:00;;;;;;;0.6;0.6;;;;;;;15.1;100.0;101010;;;;
2022/06/22 03:01:04;;;;;;;0.6;0.6;;;;;;;15.0;100.0;101010;;;;
2022/06/22 03:02:01;;;;;;;0.6;0.6;;;;;;;15.0;100.0;101010;;;;
2022/06/22 03:03:05;;;;;;;0.6;0.6;;;;;;;15.0;100.0;101010;;;;
2022/06/22 03:04:04;;;;;;;0.6;0.6;;;;;;;15.0;100.0;101010;;;;
2022/06/22 03:05:00;;;;;;;0.6;0.6;;;;;;;15.1;100.0;101020;;;;
2022/06/22 03:06:00;;;;;;;0.6;0.6;;;;;;;15.1;100.0;101020;;;;
2022/06/22 03:07:00;;;;;;;0.6;0.6;;;;;;;15.0;100.0;101020;;;;
2022/06/22 03:08:01;;;;;;;0.6;0.6;;;;;;;15.0;100.0;101020;;;;
2022/06/22 03:09:02;;;;;;;0.6;0.6;;;;;;;15.1;100.0;101020;;;;
2022/06/22 03:10:02;;;;;;;0.6;0.6;;;;;;;15.1;100.0;101020;;;;
2022/06/22 03:11:01;;;;;;;0.6;0.6;;;;;;;15.1;100.0;101020;;;;
2022/06/22 03:12:01;;;;;;;0.6;0.6;;;;;;;15.1;100.0;101020;;;;
2022/06/22 03:13:00;;;;;;;0.6;0.6;;;;;;;15.1;100.0;101020;;;;
2022/06/22 03:14:07;;;;;;;0.6;0.6;;;;;;;15.1;100.0;101020;;;;
2022/06/22 03:15:01;;;;;;;0.6;0.6;;;;;;;15.0;100.0;101020;;;;
2022/06/22 03:16:00;;;;;;;0.6;0.6;;;;;;;15.0;100.0;101020;;;;
2022/06/22 03:17:02;;;;;;;0.6;0.6;;;;;;;15.0;100.0;101020;;;;
2022/06/22 03:18:01;;;;;;;0.6;0.6;;;;;;;15.0;100.0;101020;;;;
2022/06/22 03:19:02;;;;;;;0.6;0.6;;;;;;;15.0;100.0;101030;;;;
2022/06/22 03:20:04;;;;;;;0.6;0.6;;;;;;;15.0;100.0;101030;;;;
2022/06/22 03:21:02;;;;;;;0.6;0.6;;;;;;;15.0;100.0;101030;;;;
2022/06/22 03:22:00;;;;;;;0.6;0.6;;;;;;;15.0;100.0;101030;;;;
2022/06/22 03:23:08;;;;;;;0.6;0.6;;;;;;;14.9;100.0;101040;;;;
2022/06/22 03:24:01;;;;;;;0.6;0.6;;;;;;;14.9;100.0;101040;;;;
2022/06/22 03:25:04;;;;;;;0.6;0.6;;;;;;;14.8;100.0;101040;;;;
2022/06/22 03:26:04;;;;;;;0.6;0.6;;;;;;;14.8;100.0;101040;;;;
2022/06/22 03:27:02;;;;;;;0.6;0.6;;;;;;;14.9;100.0;101040;;;;
2022/06/22 03:28:04;;;;;;;0.6;0.6;;;;;;;14.9;100.0;101040;;;;
2022/06/22 03:29:03;;;;;;;0.6;0.6;;;;;;;14.8;100.0;101040;;;;
2022/06/22 03:30:02;;;;;;;0.6;0.6;;;;;;;14.8;100.0;101040;;;;
2022/06/22 03:31:04;;;;;;;0.6;0.6;;;;;;;14.8;100.0;101040;;;;
2022/06/22 03:32:10;;;;;;;0.6;0.6;;;;;;;14.8;100.0;101040;;;;
2022/06/22 03:33:00;;;;;;;0.6;0.6;;;;;;;14.7;100.0;101030;;;;
2022/06/22 03:34:03;;;;;;;0.6;0.6;;;;;;;14.7;100.0;101030;;;;
2022/06/22 03:35:00;;;;;;;0.6;0.6;;;;;;;14.7;100.0;101030;;;;
2022/06/22 03:36:04;;;;;;;0.6;0.6;;;;;;;14.7;100.0;101030;;;;
2022/06/22 03:37:04;;;;;;;0.6;0.6;;;;;;;14.7;100.0;101030;;;;
2022/06/22 03:38:04;;;;;;;0.6;0.6;;;;;;;14.7;100.0;101030;;;;
2022/06/22 03:39:03;;;;;;;0.7;0.7;;;;;;;14.7;100.0;101020;;;;
2022/06/22 03:40:03;;;;;;;0.7;0.7;;;;;;;14.7;100.0;101020;;;;
2022/06/22 03:41:03;;;;;;;0.7;0.7;;;;;;;14.7;100.0;101020;;;;
2022/06/22 03:42:03;;;;;;;0.7;0.7;;;;;;;14.7;100.0;101020;;;;
2022/06/22 03:43:08;;;;;;;0.7;0.7;;;;;;;14.6;100.0;101020;;;;
2022/06/22 03:44:07;;;;;;;0.7;0.7;;;;;;;14.6;100.0;101020;;;;
2022/06/22 03:45:02;;;;;;;0.7;0.7;;;;;;;14.6;100.0;101020;;;;
2022/06/22 03:46:02;;;;;;;0.7;0.7;;;;;;;14.6;100.0;101020;;;;
2022/06/22 03:47:06;;;;;;;0.7;0.7;;;;;;;14.6;100.0;101020;;;;
2022/06/22 03:48:06;;;;;;;0.7;0.7;;;;;;;14.6;100.0;101020;;;;
2022/06/22 03:49:00;;;;;;;0.7;0.7;;;;;;;14.6;100.0;101010;;;;
2022/06/22 03:50:03;;;;;;;0.7;0.7;;;;;;;14.6;100.0;101010;;;;
2022/06/22 03:51:04;;;;;;;0.7;0.7;;;;;;;14.5;100.0;101010;;;;
2022/06/22 03:52:03;;;;;;;0.7;0.7;;;;;;;14.5;100.0;101010;;;;
2022/06/22 03:53:03;;;;;;;0.7;0.7;;;;;;;14.5;100.0;101000;;;;
2022/06/22 03:54:02;;;;;;;0.7;0.7;;;;;;;14.5;100.0;101000;;;;
2022/06/22 03:55:10;;;;;;;0.7;0.7;;;;;;;14.6;100.0;101000;;;;
2022/06/22 03:56:02;;;;;;;0.7;0.7;;;;;;;14.6;100.0;101000;;;;
2022/06/22 03:57:03;;;;;;;0.7;0.7;;;;;;;14.6;100.0;101010;;;;
2022/06/22 03:58:01;;;;;;;0.7;0.7;;;;;;;14.6;100.0;101010;;;;
2022/06/22 03:59:02;;;;;;;0.8;0.8;;;;;;;14.6;100.0;101010;;;;
2022/06/22 04:00:00;;;;;;;0.8;0.8;;;;;;;14.6;100.0;101010;;;;
2022/06/22 04:01:02;;;;;;;0.8;0.8;;;;;;;14.6;100.0;101010;;;;
2022/06/22 04:02:00;;;;;;;0.8;0.8;;;;;;;14.6;100.0;101010;;;;
2022/06/22 04:03:01;;;;;;;0.8;0.8;;;;;;;14.6;100.0;101010;;;;
2022/06/22 04:04:00;;;;;;;0.8;0.8;;;;;;;14.6;100.0;101010;;;;
2022/06/22 04:05:01;;;;;;;0.8;0.8;;;;;;;14.4;100.0;101010;;;;
2022/06/22 04:06:00;;;;;;;0.8;0.8;;;;;;;14.4;100.0;101010;;;;
2022/06/22 04:07:00;;;;;;;0.8;0.8;;;;;;;14.4;100.0;101010;;;;
2022/06/22 04:08:00;;;;;;;0.8;0.8;;;;;;;14.4;100.0;101010;;;;
2022/06/22 04:09:01;;;;;;;0.8;0.8;;;;;;;14.4;100.0;101000;;;;
2022/06/22 04:10:00;;;;;;;0.8;0.8;;;;;;;14.4;100.0;101000;;;;
2022/06/22 04:11:04;;;;;;;0.8;0.8;;;;;;;14.6;100.0;101000;;;;
2022/06/22 04:12:04;;;;;;;0.8;0.8;;;;;;;14.6;100.0;101000;;;;
2022/06/22 04:13:01;;;;;;;0.8;0.8;;;;;;;14.7;100.0;101000;;;;
2022/06/22 04:14:03;;;;;;;0.8;0.8;;;;;;;14.7;100.0;101000;;;;
2022/06/22 04:15:10;;;;;;;0.8;0.8;;;;;;;14.6;100.0;101000;;;;
2022/06/22 04:16:10;;;;;;;0.8;0.8;;;;;;;14.6;100.0;101000;;;;
2022/06/22 04:17:07;;;;;;;0.8;0.8;;;;;;;14.6;100.0;101000;;;;
2022/06/22 04:18:05;;;;;;;0.8;0.8;;;;;;;14.6;100.0;101000;;;;
2022/06/22 04:19:10;;;;;;;0.7;0.7;;;;;;;14.7;100.0;100990;;;;
2022/06/22 04:20:06;;;;;;;0.7;0.7;;;;;;;14.7;100.0;100990;;;;
2022/06/22 04:21:02;;;;;;;0.7;0.7;;;;;;;14.6;100.0;101000;;;;
2022/06/22 04:22:02;;;;;;;0.7;0.7;;;;;;;14.6;100.0;101000;;;;
2022/06/22 04:23:00;;;;;;;0.7;0.7;;;;;;;14.7;100.0;101000;;;;
2022/06/22 04:24:04;;;;;;;0.7;0.7;;;;;;;14.7;100.0;101000;;;;
2022/06/22 04:25:11;;;;;;;0.7;0.7;;;;;;;14.7;100.0;101000;;;;
2022/06/22 04:26:04;;;;;;;0.7;0.7;;;;;;;14.7;100.0;101000;;;;
2022/06/22 04:27:05;;;;;;;0.7;0.7;;;;;;;14.7;100.0;101000;;;;
2022/06/22 04:28:02;;;;;;;0.7;0.7;;;;;;;14.7;100.0;101000;;;;
2022/06/22 04:29:06;;;;;;;0.7;0.7;;;;;;;14.6;100.0;101010;;;;
2022/06/22 04:30:00;;;;;;;0.7;0.7;;;;;;;14.6;100.0;101010;;;;
2022/06/22 04:31:00;;;;;;;0.7;0.7;;;;;;;14.7;100.0;101010;;;;
2022/06/22 04:32:02;;;;;;;0.7;0.7;;;;;;;14.7;100.0;101010;;;;
2022/06/22 04:33:05;;;;;;;0.7;0.7;;;;;;;14.7;100.0;101010;;;;
2022/06/22 04:34:04;;;;;;;0.7;0.7;;;;;;;14.7;100.0;101010;;;;
2022/06/22 04:35:07;;;;;;;0.7;0.7;;;;;;;14.7;100.0;101010;;;;
2022/06/22 04:36:03;;;;;;;0.7;0.7;;;;;;;14.7;100.0;101010;;;;
2022/06/22 04:37:01;;;;;;;0.7;0.7;;;;;;;14.8;100.0;101010;;;;
2022/06/22 04:38:06;;;;;;;0.7;0.7;;;;;;;14.8;100.0;101010;;;;
2022/06/22 04:39:01;;;;;;;1.0;1.0;;;;;;;14.8;100.0;101010;;;;
2022/06/22 04:40:10;;;;;;;1.0;1.0;;;;;;;14.8;100.0;101010;;;;
2022/06/22 04:41:04;;;;;;;1.0;1.0;;;;;;;14.8;100.0;101010;;;;
2022/06/22 04:42:01;;;;;;;1.0;1.0;;;;;;;14.8;100.0;101010;;;;
2022/06/22 04:43:01;;;;;;;1.0;1.0;;;;;;;14.8;100.0;101020;;;;
2022/06/22 04:44:01;;;;;;;1.0;1.0;;;;;;;14.8;100.0;101020;;;;
2022/06/22 04:45:00;;;;;;;1.0;1.0;;;;;;;14.8;100.0;101020;;;;
2022/06/22 04:46:00;;;;;;;1.0;1.0;;;;;;;14.8;100.0;101020;;;;
2022/06/22 04:47:10;;;;;;;1.0;1.0;;;;;;;14.9;100.0;101020;;;;
2022/06/22 04:48:10;;;;;;;1.0;1.0;;;;;;;14.9;100.0;101020;;;;
2022/06/22 04:49:02;;;;;;;1.0;1.0;;;;;;;15.0;100.0;101020;;;;
2022/06/22 04:50:04;;;;;;;1.0;1.0;;;;;;;15.0;100.0;101020;;;;
2022/06/22 04:51:01;;;;;;;1.0;1.0;;;;;;;14.9;100.0;101030;;;;
2022/06/22 04:52:08;;;;;;;1.0;1.0;;;;;;;14.9;100.0;101030;;;;
2022/06/22 04:53:02;;;;;;;1.0;1.0;;;;;;;14.9;100.0;101030;;;;
2022/06/22 04:54:05;;;;;;;1.0;1.0;;;;;;;14.9;100.0;101030;;;;
2022/06/22 04:55:01;;;;;;;1.0;1.0;;;;;;;15.0;100.0;101040;;;;
2022/06/22 04:56:03;;;;;;;1.0;1.0;;;;;;;15.0;100.0;101040;;;;
2022/06/22 04:57:03;;;;;;;1.0;1.0;;;;;;;15.1;100.0;101040;;;;
2022/06/22 04:58:01;;;;;;;1.0;1.0;;;;;;;15.1;100.0;101040;;;;
2022/06/22 04:59:00;;;;;;;0.5;0.5;;;;;;;15.2;100.0;101030;;;;
2022/06/22 05:00:03;;;;;;;0.5;0.5;;;;;;;15.2;100.0;101030;;;;
2022/06/22 05:01:01;;;;;;;0.5;0.5;;;;;;;15.1;100.0;101030;;;;
2022/06/22 05:02:02;;;;;;;0.5;0.5;;;;;;;15.1;100.0;101030;;;;
2022/06/22 05:03:03;;;;;;;0.5;0.5;;;;;;;15.2;100.0;101030;;;;
2022/06/22 05:04:04;;;;;;;0.5;0.5;;;;;;;15.2;100.0;101030;;;;
2022/06/22 05:05:03;;;;;;;0.5;0.5;;;;;;;15.2;100.0;101040;;;;
2022/06/22 05:06:03;;;;;;;0.5;0.5;;;;;;;15.2;100.0;101040;;;;
2022/06/22 05:07:00;;;;;;;0.5;0.5;;;;;;;15.2;100.0;101040;;;;
2022/06/22 05:08:03;;;;;;;0.5;0.5;;;;;;;15.2;100.0;101040;;;;
2022/06/22 05:09:03;;;;;;;0.5;0.5;;;;;;;15.3;100.0;101040;;;;
2022/06/22 05:10:01;;;;;;;0.5;0.5;;;;;;;15.3;100.0;101040;;;;
2022/06/22 05:11:10;;;;;;;0.5;0.5;;;;;;;15.2;100.0;101050;;;;
2022/06/22 05:12:01;;;;;;;0.5;0.5;;;;;;;15.2;100.0;101050;;;;
2022/06/22 05:13:02;;;;;;;0.5;0.5;;;;;;;15.3;100.0;101050;;;;
2022/06/22 05:14:00;;;;;;;0.5;0.5;;;;;;;15.3;100.0;101050;;;;
2022/06/22 05:15:01;;;;;;;0.5;0.5;;;;;;;15.3;100.0;101060;;;;
2022/06/22 05:16:02;;;;;;;0.5;0.5;;;;;;;15.3;100.0;101060;;;;
2022/06/22 05:17:11;;;;;;;0.5;0.5;;;;;;;15.4;100.0;101060;;;;
2022/06/22 05:18:01;;;;;;;0.5;0.5;;;;;;;15.4;100.0;101060;;;;
2022/06/22 05:19:01;;;;;;;0.4;0.4;;;;;;;15.4;100.0;101060;;;;
2022/06/22 05:20:04;;;;;;;0.4;0.4;;;;;;;15.4;100.0;101060;;;;
2022/06/22 05:21:04;;;;;;;0.4;0.4;;;;;;;15.4;100.0;101070;;;;
2022/06/22 05:22:00;;;;;;;0.4;0.4;;;;;;;15.4;100.0;101070;;;;
2022/06/22 05:23:02;;;;;;;0.4;0.4;;;;;;;15.5;100.0;101070;;;;
2022/06/22 05:24:01;;;;;;;0.4;0.4;;;;;;;15.5;100.0;101070;;;;
2022/06/22 05:25:02;;;;;;;0.4;0.4;;;;;;;15.6;100.0;101070;;;;
2022/06/22 05:26:03;;;;;;;0.4;0.4;;;;;;;15.6;100.0;101070;;;;
2022/06/22 05:27:04;;;;;;;0.4;0.4;;;;;;;15.6;100.0;101070;;;;
2022/06/22 05:28:05;;;;;;;0.4;0.4;;;;;;;15.6;100.0;101070;;;;
2022/06/22 05:29:04;;;;;;;0.4;0.4;;;;;;;15.7;100.0;101070;;;;
2022/06/22 05:30:03;;;;;;;0.4;0.4;;;;;;;15.7;100.0;101070;;;;
2022/06/22 05:31:03;;;;;;;0.4;0.4;;;;;;;15.7;100.0;101070;;;;
2022/06/22 05:32:02;;;;;;;0.4;0.4;;;;;;;15.7;100.0;101070;;;;
2022/06/22 05:33:02;;;;;;;0.4;0.4;;;;;;;15.7;100.0;101080;;;;
2022/06/22 05:34:04;;;;;;;0.4;0.4;;;;;;;15.7;100.0;101080;;;;
2022/06/22 05:35:05;;;;;;;0.4;0.4;;;;;;;15.7;100.0;101080;;;;
2022/06/22 05:36:12;;;;;;;0.4;0.4;;;;;;;15.7;100.0;101080;;;;
2022/06/22 05:37:03;;;;;;;0.4;0.4;;;;;;;15.8;100.0;101080;;;;
2022/06/22 05:38:01;;;;;;;0.4;0.4;;;;;;;15.8;100.0;101080;;;;
2022/06/22 05:39:00;;;;;;;0.5;0.5;;;;;;;15.7;100.0;101080;;;;
2022/06/22 05:40:01;;;;;;;0.5;0.5;;;;;;;15.7;100.0;101080;;;;
2022/06/22 05:41:04;;;;;;;0.5;0.5;;;;;;;15.9;100.0;101070;;;;
2022/06/22 05:42:00;;;;;;;0.5;0.5;;;;;;;15.9;100.0;101070;;;;
2022/06/22 05:43:00;;;;;;;0.5;0.5;;;;;;;16.0;100.0;101070;;;;
2022/06/22 05:44:04;;;;;;;0.5;0.5;;;;;;;16.0;100.0;101070;;;;
2022/06/22 05:45:00;;;;;;;0.5;0.5;;;;;;;16.1;100.0;101070;;;;
2022/06/22 05:46:02;;;;;;;0.5;0.5;;;;;;;16.1;100.0;101070;;;;
2022/06/22 05:47:00;;;;;;;0.5;0.5;;;;;;;16.2;100.0;101070;;;;
2022/06/22 05:48:00;;;;;;;0.5;0.5;;;;;;;16.2;100.0;101070;;;;
2022/06/22 05:49:00;;;;;;;0.5;0.5;;;;;;;16.3;100.0;101070;;;;
2022/06/22 05:50:10;;;;;;;0.5;0.5;;;;;;;16.3;100.0;101070;;;;
2022/06/22 05:51:04;;;;;;;0.5;0.5;;;;;;;16.4;100.0;101070;;;;
2022/06/22 05:52:10;;;;;;;0.5;0.5;;;;;;;16.4;100.0;101070;;;;
2022/06/22 05:53:08;;;;;;;0.5;0.5;;;;;;;16.4;100.0;101070;;;;
2022/06/22 05:54:05;;;;;;;0.5;0.5;;;;;;;16.4;100.0;101070;;;;
2022/06/22 05:55:04;;;;;;;0.5;0.5;;;;;;;16.6;100.0;101070;;;;
2022/06/22 05:56:10;;;;;;;0.5;0.5;;;;;;;16.6;100.0;101070;;;;
2022/06/22 05:57:10;;;;;;;0.5;0.5;;;;;;;16.6;100.0;101070;;;;
2022/06/22 05:58:03;;;;;;;0.5;0.5;;;;;;;16.6;100.0;101070;;;;
2022/06/22 05:59:00;;;;;;;0.7;0.7;;;;;;;16.8;100.0;101070;;;;
2022/06/22 06:00:03;;;;;;;0.7;0.7;;;;;;;16.8;100.0;101070;;;;
2022/06/22 06:01:02;;;;;;;0.7;0.7;;;;;;;16.9;100.0;101070;;;;
2022/06/22 06:02:07;;;;;;;0.7;0.7;;;;;;;16.9;100.0;101070;;;;
2022/06/22 06:03:04;;;;;;;0.7;0.7;;;;;;;16.9;100.0;101070;;;;
2022/06/22 06:04:05;;;;;;;0.7;0.7;;;;;;;16.9;100.0;101070;;;;
2022/06/22 06:05:10;;;;;;;0.7;0.7;;;;;;;17.1;100.0;101070;;;;
2022/06/22 06:06:10;;;;;;;0.7;0.7;;;;;;;17.1;100.0;101070;;;;
2022/06/22 06:07:03;;;;;;;0.7;0.7;;;;;;;17.2;100.0;101070;;;;
2022/06/22 06:08:02;;;;;;;0.7;0.7;;;;;;;17.2;100.0;101070;;;;
2022/06/22 06:09:01;;;;;;;0.7;0.7;;;;;;;17.2;100.0;101080;;;;
2022/06/22 06:10:02;;;;;;;0.7;0.7;;;;;;;17.2;100.0;101080;;;;
2022/06/22 06:11:00;;;;;;;0.7;0.7;;;;;;;17.3;100.0;101080;;;;
2022/06/22 06:12:04;;;;;;;0.7;0.7;;;;;;;17.3;100.0;101080;;;;
2022/06/22 06:13:02;;;;;;;0.7;0.7;;;;;;;17.4;100.0;101080;;;;
2022/06/22 06:14:02;;;;;;;0.7;0.7;;;;;;;17.4;100.0;101080;;;;
2022/06/22 06:15:02;;;;;;;0.7;0.7;;;;;;;17.5;100.0;101090;;;;
2022/06/22 06:16:06;;;;;;;0.7;0.7;;;;;;;17.5;100.0;101090;;;;
2022/06/22 06:17:10;;;;;;;0.7;0.7;;;;;;;17.5;100.0;101090;;;;
2022/06/22 06:18:00;;;;;;;0.7;0.7;;;;;;;17.5;100.0;101090;;;;
2022/06/22 06:19:02;;;;;;;0.4;0.4;;;;;;;17.7;100.0;101100;;;;
2022/06/22 06:20:00;;;;;;;0.4;0.4;;;;;;;17.7;100.0;101100;;;;
2022/06/22 06:21:05;;;;;;;0.4;0.4;;;;;;;17.7;100.0;101090;;;;
2022/06/22 06:22:01;;;;;;;0.4;0.4;;;;;;;17.7;100.0;101090;;;;
2022/06/22 06:23:04;;;;;;;0.4;0.4;;;;;;;17.8;100.0;101090;;;;
2022/06/22 06:24:03;;;;;;;0.4;0.4;;;;;;;17.8;100.0;101090;;;;
2022/06/22 06:28:04;;;;;;;0.4;0.4;;;;;;;17.9;100.0;101090;;;;
2022/06/22 06:29:05;;;;;;;0.4;0.4;;;;;;;17.9;100.0;101100;;;;
2022/06/22 06:30:07;;;;;;;0.4;0.4;;;;;;;17.9;100.0;101100;;;;
2022/06/22 06:31:05;;;;;;;0.4;0.4;;;;;;;18.0;100.0;101090;;;;
2022/06/22 06:32:10;;;;;;;0.4;0.4;;;;;;;18.0;100.0;101090;;;;